Livermore, Iowa
Current Conditions -  °F | °C
As of 8:55 AM on Sunday 21 Dec 2014 (Local Time) from KAXA Reporting Station
Moderate Fog Moderate Fog  
Wind Chill: 25°   Ceiling: 200
Heat Index: 36°   Visibility: 0.5mi
Dew Point: 36°   Wind: 21mph
Humidity: 100%   Direction: 180°S
Pressure: 29.85"   Gusts: NA
Location:  42.87°N, 94.19°W
Report Text: KAXA 211455Z AUTO 18018KT 1/2SM FG OVC002 02/02 A2985 RMK AO2
Loading
Personal Weather Stations






























Interactive Weather Map New forecast layout! Learn more

10-Day Weather Forecast

Advertisements
Track Severe Weather on mobile